createdAt,value
2023-06-30T00:00:00.648Z,3.98
2023-06-30T00:02:27.326Z,4.07
2023-06-30T00:04:53.987Z,4.42
2023-06-30T00:07:23.653Z,4.56
2023-06-30T00:09:51.767Z,4.54
2023-06-30T00:12:18.564Z,4.43
2023-06-30T00:14:45.785Z,4.30
2023-06-30T00:17:12.527Z,4.36
2023-06-30T00:19:39.117Z,4.62
2023-06-30T00:22:05.945Z,4.75
2023-06-30T00:24:32.697Z,4.77
2023-06-30T00:26:59.340Z,4.66
2023-06-30T00:29:25.974Z,4.81
2023-06-30T00:31:52.841Z,4.88
2023-06-30T00:34:19.767Z,4.95
2023-06-30T00:36:46.891Z,5.54
2023-06-30T00:39:13.522Z,5.38
2023-06-30T00:41:40.098Z,5.35
2023-06-30T00:44:07.070Z,5.29
2023-06-30T00:46:35.342Z,5.70
2023-06-30T00:49:02.686Z,5.70
2023-06-30T00:51:29.819Z,5.44
2023-06-30T00:53:56.712Z,5.16
2023-06-30T00:56:25.561Z,5.25
2023-06-30T00:58:53.265Z,5.39
2023-06-30T01:01:26.711Z,5.31
2023-06-30T01:04:00.953Z,5.70
2023-06-30T01:06:34.671Z,5.40
2023-06-30T01:09:20.241Z,5.36
2023-06-30T01:11:47.492Z,5.30
2023-06-30T01:14:17.970Z,5.49
2023-06-30T01:16:46.281Z,5.74
2023-06-30T01:19:36.666Z,5.87
2023-06-30T01:22:06.016Z,5.63
2023-06-30T01:24:36.065Z,5.45
2023-06-30T01:27:03.424Z,5.64
2023-06-30T01:29:31.457Z,5.11
2023-06-30T01:31:59.890Z,5.16
2023-06-30T01:34:26.675Z,4.84
2023-06-30T01:36:53.294Z,5.23
2023-06-30T01:39:20.012Z,5.32
2023-06-30T01:41:47.268Z,5.30
2023-06-30T01:44:14.120Z,5.00
2023-06-30T01:46:41.138Z,5.24
2023-06-30T01:49:08.718Z,4.97
2023-06-30T01:51:35.338Z,4.74
2023-06-30T01:54:02.034Z,5.09
2023-06-30T01:56:29.520Z,5.11
2023-06-30T01:58:56.121Z,5.20
2023-06-30T02:01:22.997Z,4.79
2023-06-30T02:03:50.552Z,4.57
2023-06-30T02:06:17.279Z,4.96
2023-06-30T02:08:43.892Z,4.96
2023-06-30T02:11:10.608Z,4.70
2023-06-30T02:13:38.071Z,4.35
2023-06-30T02:16:04.856Z,4.32
2023-06-30T02:18:31.939Z,4.47
2023-06-30T02:21:00.567Z,4.81
2023-06-30T02:23:29.462Z,4.36
2023-06-30T02:25:56.192Z,4.51
2023-06-30T02:28:25.652Z,4.18
2023-06-30T02:30:56.218Z,4.45
2023-06-30T02:33:24.347Z,4.16
2023-06-30T02:35:52.005Z,3.78
2023-06-30T02:38:20.031Z,3.80
2023-06-30T02:40:46.687Z,3.87
2023-06-30T02:43:13.533Z,3.60
2023-06-30T02:45:40.284Z,3.37
2023-06-30T02:48:06.998Z,3.66
2023-06-30T02:50:34.058Z,3.46
2023-06-30T02:53:01.090Z,3.66
2023-06-30T02:55:28.434Z,3.79
2023-06-30T02:57:55.103Z,3.97
2023-06-30T03:00:21.857Z,3.96
2023-06-30T03:02:49.263Z,3.95
2023-06-30T03:05:17.392Z,3.74
2023-06-30T03:07:44.135Z,3.78
2023-06-30T03:10:10.994Z,4.06
2023-06-30T03:12:38.349Z,4.00
2023-06-30T03:15:05.933Z,3.60
2023-06-30T03:17:34.934Z,3.61
2023-06-30T03:20:02.255Z,3.73
2023-06-30T03:22:29.354Z,3.99
2023-06-30T03:24:58.602Z,3.85
2023-06-30T03:27:25.230Z,4.25
2023-06-30T03:29:52.098Z,4.41
2023-06-30T03:32:19.729Z,4.37
2023-06-30T03:34:46.397Z,3.94
2023-06-30T03:37:13.051Z,3.69
2023-06-30T03:39:40.607Z,4.05
2023-06-30T03:42:07.389Z,4.23
2023-06-30T03:44:37.934Z,4.03
2023-06-30T03:47:05.757Z,4.17
2023-06-30T03:49:32.330Z,3.67
2023-06-30T03:51:58.892Z,4.06
2023-06-30T03:54:25.612Z,4.08
2023-06-30T03:56:52.313Z,4.33
2023-06-30T03:59:18.977Z,4.43
2023-06-30T04:01:46.046Z,4.35
2023-06-30T04:04:12.812Z,4.92
2023-06-30T04:06:39.559Z,6.18
2023-06-30T04:09:06.250Z,6.75
2023-06-30T04:11:33.050Z,6.32
2023-06-30T04:14:00.815Z,6.72
2023-06-30T04:16:27.613Z,6.89
2023-06-30T04:18:54.392Z,6.31
2023-06-30T04:21:21.019Z,5.75
2023-06-30T04:23:47.651Z,5.62
2023-06-30T04:26:18.070Z,5.65
2023-06-30T04:28:46.314Z,5.79
2023-06-30T04:31:13.004Z,5.92
2023-06-30T04:33:39.620Z,6.61
2023-06-30T04:36:08.038Z,6.91
2023-06-30T04:38:34.919Z,6.68
2023-06-30T04:41:02.023Z,6.40
2023-06-30T04:43:28.779Z,7.06
2023-06-30T04:45:55.428Z,6.80
2023-06-30T04:48:21.995Z,6.12
2023-06-30T04:50:48.638Z,6.00
2023-06-30T04:53:15.179Z,5.93
2023-06-30T04:55:42.143Z,5.85
2023-06-30T04:58:08.880Z,5.39
2023-06-30T05:00:35.582Z,5.54
2023-06-30T05:03:03.561Z,5.72
2023-06-30T05:05:30.393Z,5.34
2023-06-30T05:07:56.973Z,5.01
2023-06-30T05:10:23.628Z,4.72
2023-06-30T05:12:50.215Z,5.03
2023-06-30T05:15:16.859Z,5.03
2023-06-30T05:17:44.167Z,4.98
2023-06-30T05:20:11.216Z,4.97
2023-06-30T05:22:37.846Z,5.25
2023-06-30T05:25:04.731Z,4.75
2023-06-30T05:27:31.438Z,4.83
2023-06-30T05:29:58.018Z,4.88
2023-06-30T05:32:24.647Z,4.90
2023-06-30T05:34:51.656Z,4.70
2023-06-30T05:37:18.288Z,4.61
2023-06-30T05:39:44.892Z,4.46
2023-06-30T05:42:11.520Z,4.50
2023-06-30T05:44:38.193Z,4.23
2023-06-30T05:47:05.087Z,3.91
2023-06-30T05:49:31.819Z,4.15
2023-06-30T05:51:58.854Z,3.73
2023-06-30T05:54:25.559Z,3.81
2023-06-30T05:56:52.184Z,3.70
2023-06-30T05:59:18.929Z,3.68
2023-06-30T06:01:45.486Z,3.52
2023-06-30T06:04:12.393Z,3.34
2023-06-30T06:06:39.666Z,3.45
2023-06-30T06:09:06.355Z,3.55
2023-06-30T06:11:32.918Z,3.26
2023-06-30T06:13:59.549Z,3.32
2023-06-30T06:16:27.316Z,3.22
2023-06-30T06:18:54.102Z,3.18
2023-06-30T06:21:21.619Z,3.10
2023-06-30T06:23:48.280Z,3.08
2023-06-30T06:26:14.856Z,2.94
2023-06-30T06:28:41.471Z,2.76
2023-06-30T06:31:08.453Z,2.76
2023-06-30T06:33:35.139Z,2.70
2023-06-30T06:36:01.728Z,2.55
2023-06-30T06:38:28.269Z,2.46
2023-06-30T06:40:54.840Z,2.56
2023-06-30T06:43:27.062Z,2.53
2023-06-30T06:45:53.717Z,2.53
2023-06-30T06:48:20.383Z,2.29
2023-06-30T06:50:47.518Z,2.65
2023-06-30T06:53:19.021Z,2.52
2023-06-30T06:55:46.432Z,2.50
2023-06-30T06:58:13.267Z,2.64
2023-06-30T07:00:39.876Z,2.53
2023-06-30T07:03:06.453Z,2.51
2023-06-30T07:05:33.055Z,2.63
2023-06-30T07:07:59.680Z,2.68
2023-06-30T07:10:26.264Z,2.78
2023-06-30T07:12:53.463Z,2.55
2023-06-30T07:15:20.012Z,2.46
2023-06-30T07:17:46.719Z,2.31
2023-06-30T07:20:13.482Z,2.31
2023-06-30T07:22:40.096Z,2.45
2023-06-30T07:25:08.126Z,2.72
2023-06-30T07:27:39.232Z,2.22
2023-06-30T07:30:07.496Z,2.30
2023-06-30T07:32:34.633Z,2.14
2023-06-30T07:35:02.766Z,2.26
2023-06-30T07:37:29.585Z,2.01
2023-06-30T07:40:00.072Z,1.72
2023-06-30T07:42:32.102Z,1.85
2023-06-30T07:44:58.678Z,1.84
2023-06-30T07:47:25.299Z,1.85
2023-06-30T07:49:51.900Z,1.68
2023-06-30T07:52:18.498Z,1.69
2023-06-30T07:54:46.203Z,1.65
2023-06-30T07:57:12.762Z,1.59
2023-06-30T07:59:39.360Z,1.62
2023-06-30T08:02:07.205Z,1.56
2023-06-30T08:04:35.006Z,1.61
2023-06-30T08:07:01.778Z,1.66
2023-06-30T08:09:28.402Z,1.46
2023-06-30T08:11:55.333Z,1.60
2023-06-30T08:14:21.900Z,1.52
2023-06-30T08:16:48.493Z,1.64
2023-06-30T08:19:22.085Z,1.60
2023-06-30T08:22:02.875Z,1.60
2023-06-30T08:24:29.693Z,1.59
2023-06-30T08:26:56.270Z,1.62
2023-06-30T08:29:22.808Z,1.98
2023-06-30T08:31:49.374Z,1.81
2023-06-30T08:34:15.908Z,1.67
2023-06-30T08:36:42.450Z,1.74
2023-06-30T08:39:09.074Z,1.81
2023-06-30T08:41:37.107Z,1.76
2023-06-30T08:44:03.728Z,1.75
2023-06-30T08:46:30.609Z,1.79
2023-06-30T08:48:57.825Z,2.01
2023-06-30T08:51:24.811Z,1.79
2023-06-30T08:53:52.590Z,1.71
2023-06-30T08:56:20.322Z,1.78
2023-06-30T08:58:46.878Z,2.12
2023-06-30T09:01:13.669Z,1.96
2023-06-30T09:03:40.685Z,1.87
2023-06-30T09:06:10.643Z,1.87
2023-06-30T09:08:48.991Z,1.85
2023-06-30T09:11:16.541Z,1.70
2023-06-30T09:13:43.665Z,1.96
2023-06-30T09:16:18.841Z,1.98
2023-06-30T09:18:47.400Z,1.75
2023-06-30T09:21:14.550Z,1.97
2023-06-30T09:23:41.389Z,1.80
2023-06-30T09:26:15.577Z,1.77
2023-06-30T09:28:44.152Z,1.73
2023-06-30T09:31:11.359Z,1.78
2023-06-30T09:33:40.076Z,1.80
2023-06-30T09:36:07.212Z,1.77
2023-06-30T09:38:35.263Z,1.81
2023-06-30T09:41:04.323Z,1.83
2023-06-30T09:43:30.854Z,1.90
2023-06-30T09:45:58.533Z,2.00
2023-06-30T09:48:39.979Z,1.98
2023-06-30T09:51:08.299Z,1.73
2023-06-30T09:53:38.948Z,1.88
2023-06-30T09:56:05.948Z,1.74
2023-06-30T09:58:32.587Z,2.01
2023-06-30T10:00:59.712Z,1.79
2023-06-30T10:03:26.620Z,1.99
2023-06-30T10:05:53.970Z,2.09
2023-06-30T10:08:24.955Z,2.05
2023-06-30T10:10:53.921Z,2.23
2023-06-30T10:13:21.136Z,1.92
2023-06-30T10:15:49.326Z,1.94
2023-06-30T10:18:18.104Z,1.91
2023-06-30T10:20:49.139Z,2.04
2023-06-30T10:23:21.372Z,2.04
2023-06-30T10:25:50.143Z,2.08
2023-06-30T10:28:18.038Z,1.94
2023-06-30T10:30:45.308Z,2.10
2023-06-30T10:33:12.035Z,2.23
2023-06-30T10:35:39.312Z,2.25
2023-06-30T10:38:06.450Z,2.17
2023-06-30T10:40:34.026Z,2.24
2023-06-30T10:43:00.681Z,2.60
2023-06-30T10:45:31.889Z,2.69
2023-06-30T10:47:58.855Z,2.48
2023-06-30T10:50:25.553Z,2.41
2023-06-30T10:52:54.077Z,2.91
2023-06-30T10:55:27.984Z,2.86
2023-06-30T10:57:55.891Z,3.15
2023-06-30T11:00:25.514Z,3.00
2023-06-30T11:02:56.597Z,3.18
2023-06-30T11:05:27.449Z,3.57
2023-06-30T11:08:04.370Z,3.72
2023-06-30T11:10:34.086Z,3.46
2023-06-30T11:13:02.074Z,3.59
2023-06-30T11:15:39.118Z,3.73
2023-06-30T11:18:07.570Z,3.79
2023-06-30T11:20:34.544Z,4.40
2023-06-30T11:23:05.402Z,4.56
2023-06-30T11:25:33.556Z,4.52
2023-06-30T11:28:02.650Z,4.36
2023-06-30T11:30:32.617Z,4.69
2023-06-30T11:32:59.868Z,4.55
2023-06-30T11:35:28.142Z,4.06
2023-06-30T11:37:54.890Z,4.07
2023-06-30T11:40:22.858Z,4.01
2023-06-30T11:42:50.037Z,4.02
2023-06-30T11:45:28.574Z,3.83
2023-06-30T11:47:56.718Z,3.34
2023-06-30T11:50:26.184Z,3.49
2023-06-30T11:52:52.939Z,3.10
2023-06-30T11:55:21.009Z,3.16
2023-06-30T11:57:48.053Z,3.47
2023-06-30T12:00:20.680Z,3.54
2023-06-30T12:02:57.730Z,3.09
2023-06-30T12:05:26.649Z,3.23
2023-06-30T12:07:57.476Z,3.05
2023-06-30T12:10:40.792Z,2.91
2023-06-30T12:13:08.458Z,2.85
2023-06-30T12:15:36.924Z,3.14
2023-06-30T12:18:05.597Z,2.88
2023-06-30T12:20:34.713Z,3.01
2023-06-30T12:23:01.768Z,3.14
2023-06-30T12:25:35.433Z,3.21
2023-06-30T12:28:06.059Z,3.05
2023-06-30T12:30:33.421Z,2.93
2023-06-30T12:33:01.319Z,2.89
2023-06-30T12:35:29.147Z,2.96
2023-06-30T12:37:55.792Z,3.07
2023-06-30T12:40:23.624Z,3.06
2023-06-30T12:42:52.670Z,3.06
2023-06-30T12:45:19.308Z,3.28
2023-06-30T12:47:45.878Z,2.97
2023-06-30T12:50:12.580Z,3.21
2023-06-30T12:52:39.294Z,2.91
2023-06-30T12:55:06.225Z,3.57
2023-06-30T12:57:33.846Z,3.41
2023-06-30T13:00:00.421Z,2.85
2023-06-30T13:02:27.161Z,2.75
2023-06-30T13:04:53.769Z,2.76
2023-06-30T13:07:20.607Z,3.02
2023-06-30T13:09:50.113Z,2.95
2023-06-30T13:12:17.904Z,3.28
2023-06-30T13:14:44.679Z,2.78
2023-06-30T13:17:11.228Z,2.97
2023-06-30T13:19:37.891Z,2.93
2023-06-30T13:22:04.586Z,2.87
2023-06-30T13:24:31.240Z,3.36
2023-06-30T13:26:58.035Z,3.02
2023-06-30T13:29:24.572Z,3.12
2023-06-30T13:31:51.180Z,2.93
2023-06-30T13:34:17.796Z,2.92
2023-06-30T13:36:44.451Z,3.08
2023-06-30T13:39:11.046Z,3.21
2023-06-30T13:41:37.837Z,2.93
2023-06-30T13:44:04.703Z,2.87
2023-06-30T13:46:31.379Z,3.00
2023-06-30T13:48:58.021Z,3.59
2023-06-30T13:51:24.628Z,3.21
2023-06-30T13:53:51.210Z,3.07
2023-06-30T13:56:17.788Z,3.16
2023-06-30T13:58:44.346Z,3.33
2023-06-30T14:01:10.977Z,3.29
2023-06-30T14:03:38.922Z,3.24
2023-06-30T14:06:05.797Z,3.43
2023-06-30T14:08:34.083Z,3.94
2023-06-30T14:11:00.774Z,3.75
2023-06-30T14:13:28.712Z,4.02
2023-06-30T14:15:55.368Z,4.61
2023-06-30T14:18:22.010Z,4.76
2023-06-30T14:20:48.828Z,4.64
2023-06-30T14:23:15.658Z,4.34
2023-06-30T14:25:42.274Z,5.00
2023-06-30T14:28:09.900Z,4.47
2023-06-30T14:30:36.746Z,4.80
2023-06-30T14:33:04.025Z,5.45
2023-06-30T14:35:31.515Z,6.03
2023-06-30T14:37:58.525Z,6.25
2023-06-30T14:40:25.621Z,6.05
2023-06-30T14:42:54.890Z,6.16
2023-06-30T14:45:21.548Z,7.28
2023-06-30T14:47:49.869Z,7.61
2023-06-30T14:50:16.586Z,7.07
2023-06-30T14:52:43.352Z,6.49
2023-06-30T14:55:10.065Z,7.20
2023-06-30T14:57:36.645Z,6.00
2023-06-30T15:00:04.061Z,5.30
2023-06-30T15:02:30.741Z,5.59
2023-06-30T15:04:57.973Z,6.06
2023-06-30T15:07:24.753Z,5.90
2023-06-30T15:09:51.314Z,5.57
2023-06-30T15:12:17.878Z,5.52
2023-06-30T15:14:48.212Z,5.11
2023-06-30T15:17:15.211Z,5.50
2023-06-30T15:19:45.041Z,5.31
2023-06-30T15:22:12.321Z,5.10
2023-06-30T15:24:39.015Z,5.18
2023-06-30T15:27:05.714Z,5.22
2023-06-30T15:29:33.914Z,4.66
2023-06-30T15:32:00.740Z,4.82
2023-06-30T15:34:27.327Z,4.11
2023-06-30T15:36:53.968Z,3.62
2023-06-30T15:39:20.555Z,3.58
2023-06-30T15:41:47.101Z,4.19
2023-06-30T15:44:13.696Z,3.96
2023-06-30T15:46:40.497Z,3.77
2023-06-30T15:49:07.212Z,3.69
2023-06-30T15:51:34.271Z,3.94
2023-06-30T15:54:00.995Z,3.43
2023-06-30T15:56:27.552Z,3.34
2023-06-30T15:58:54.162Z,3.50
2023-06-30T16:01:20.755Z,3.69
2023-06-30T16:03:47.478Z,3.44
2023-06-30T16:06:14.127Z,3.45
2023-06-30T16:08:40.688Z,3.40
2023-06-30T16:11:07.301Z,3.45
2023-06-30T16:13:33.905Z,3.42
2023-06-30T16:16:00.567Z,3.43
2023-06-30T16:18:27.181Z,3.54
2023-06-30T16:20:53.796Z,3.08
2023-06-30T16:23:20.451Z,3.16
2023-06-30T16:25:47.237Z,2.98
2023-06-30T16:28:13.953Z,3.02
2023-06-30T16:30:43.193Z,3.18
2023-06-30T16:33:10.824Z,2.88
2023-06-30T16:35:37.566Z,3.36
2023-06-30T16:38:04.205Z,2.98
2023-06-30T16:40:30.839Z,3.07
2023-06-30T16:42:57.551Z,3.16
2023-06-30T16:45:24.399Z,3.34
2023-06-30T16:47:51.390Z,2.93
2023-06-30T16:50:18.281Z,2.93
2023-06-30T16:52:45.322Z,3.17
2023-06-30T16:55:12.532Z,2.98
2023-06-30T16:57:39.962Z,3.20
2023-06-30T17:00:09.120Z,3.58
2023-06-30T17:02:36.367Z,2.96
2023-06-30T17:05:03.850Z,3.12
2023-06-30T17:07:30.639Z,3.24
2023-06-30T17:09:57.333Z,3.09
2023-06-30T17:12:24.106Z,2.73
2023-06-30T17:14:50.855Z,3.00
2023-06-30T17:17:17.532Z,2.88
2023-06-30T17:19:44.225Z,3.11
2023-06-30T17:22:10.885Z,3.04
2023-06-30T17:24:37.477Z,2.79
2023-06-30T17:27:04.205Z,3.21
2023-06-30T17:29:30.935Z,3.28
2023-06-30T17:31:57.669Z,3.50
2023-06-30T17:34:24.326Z,3.09
2023-06-30T17:36:59.527Z,3.07
2023-06-30T17:39:26.174Z,3.34
2023-06-30T17:41:52.865Z,3.30
2023-06-30T17:44:20.656Z,3.63
2023-06-30T17:46:47.377Z,3.17
2023-06-30T17:49:20.172Z,3.13
2023-06-30T17:51:46.779Z,3.21
2023-06-30T17:54:16.189Z,2.86
2023-06-30T17:56:46.377Z,2.96
2023-06-30T17:59:14.466Z,2.97
2023-06-30T18:01:42.120Z,3.35
2023-06-30T18:04:09.441Z,3.12
2023-06-30T18:06:59.148Z,3.04
2023-06-30T18:09:25.980Z,3.22
2023-06-30T18:11:52.604Z,3.04
2023-06-30T18:14:19.294Z,3.05
2023-06-30T18:16:45.986Z,3.20
2023-06-30T18:19:12.677Z,3.45
2023-06-30T18:21:40.613Z,3.40
2023-06-30T18:24:07.399Z,3.18
2023-06-30T18:26:34.391Z,3.16
2023-06-30T18:29:01.014Z,3.26
2023-06-30T18:31:27.638Z,3.08
2023-06-30T18:33:54.212Z,3.02
2023-06-30T18:36:20.880Z,3.36
2023-06-30T18:38:47.495Z,3.22
2023-06-30T18:41:14.426Z,3.10
2023-06-30T18:43:41.090Z,3.29
2023-06-30T18:46:08.024Z,3.36
2023-06-30T18:48:35.373Z,3.47
2023-06-30T18:51:02.189Z,3.57
2023-06-30T18:53:28.757Z,3.37
2023-06-30T18:55:55.391Z,3.76
2023-06-30T18:58:22.990Z,3.58
2023-06-30T19:00:50.444Z,3.26
2023-06-30T19:03:18.189Z,3.42
2023-06-30T19:05:45.243Z,3.56
2023-06-30T19:08:12.169Z,3.39
2023-06-30T19:10:38.899Z,3.61
2023-06-30T19:13:05.569Z,3.79
2023-06-30T19:15:32.210Z,3.81
2023-06-30T19:17:58.912Z,4.21
2023-06-30T19:20:25.561Z,4.23
2023-06-30T19:22:52.225Z,3.76
2023-06-30T19:25:18.991Z,3.31
2023-06-30T19:27:45.549Z,3.52
2023-06-30T19:30:12.481Z,3.23
2023-06-30T19:32:39.260Z,2.90
2023-06-30T19:35:06.027Z,2.75
2023-06-30T19:37:32.655Z,2.78
2023-06-30T19:39:59.299Z,3.00
2023-06-30T19:42:27.048Z,2.88
2023-06-30T19:44:53.742Z,3.12
2023-06-30T19:47:20.507Z,2.80
2023-06-30T19:49:47.250Z,3.03
2023-06-30T19:52:13.962Z,3.15
2023-06-30T19:54:41.433Z,3.17
2023-06-30T19:57:08.004Z,3.39
2023-06-30T19:59:34.700Z,3.31
2023-06-30T20:02:02.039Z,3.10
2023-06-30T20:04:29.046Z,3.07
2023-06-30T20:06:55.804Z,3.15
2023-06-30T20:09:22.540Z,3.33
2023-06-30T20:11:49.209Z,3.09
2023-06-30T20:14:15.831Z,2.74
2023-06-30T20:16:44.231Z,3.22
2023-06-30T20:19:12.225Z,3.06
2023-06-30T20:21:38.865Z,2.30
2023-06-30T20:24:05.572Z,2.78
2023-06-30T20:26:32.167Z,2.83
2023-06-30T20:28:58.991Z,2.97
2023-06-30T20:31:25.661Z,2.94
2023-06-30T20:33:52.314Z,2.84
2023-06-30T20:36:19.004Z,2.52
2023-06-30T20:38:45.661Z,2.61
2023-06-30T20:41:13.030Z,2.63
2023-06-30T20:43:39.794Z,2.56
2023-06-30T20:46:06.492Z,2.53
2023-06-30T20:48:33.165Z,2.48
2023-06-30T20:50:59.773Z,2.62
2023-06-30T20:53:26.451Z,2.45
2023-06-30T20:55:56.046Z,2.39
2023-06-30T20:58:22.677Z,2.38
2023-06-30T21:00:49.443Z,2.34
2023-06-30T21:03:16.430Z,2.57
2023-06-30T21:05:43.088Z,2.51
2023-06-30T21:08:09.727Z,2.42
2023-06-30T21:10:36.401Z,2.55
2023-06-30T21:13:03.048Z,2.42
2023-06-30T21:15:29.755Z,3.32
2023-06-30T21:17:56.361Z,2.71
2023-06-30T21:20:23.002Z,2.36
2023-06-30T21:22:49.657Z,2.41
2023-06-30T21:25:16.298Z,2.45
2023-06-30T21:27:42.850Z,2.61
2023-06-30T21:30:10.039Z,2.73
2023-06-30T21:32:38.639Z,2.41
2023-06-30T21:35:05.554Z,2.56
2023-06-30T21:37:32.206Z,2.38
2023-06-30T21:39:58.752Z,2.26
2023-06-30T21:42:25.436Z,2.55
2023-06-30T21:44:52.853Z,2.63
2023-06-30T21:47:19.541Z,2.80
2023-06-30T21:49:46.147Z,2.90
2023-06-30T21:52:12.980Z,3.05
2023-06-30T21:54:47.973Z,2.73
2023-06-30T21:57:15.354Z,2.93
2023-06-30T21:59:42.058Z,2.91
2023-06-30T22:02:09.920Z,3.06
2023-06-30T22:04:36.743Z,2.69
2023-06-30T22:07:03.437Z,2.90
2023-06-30T22:09:30.118Z,2.75
2023-06-30T22:11:56.735Z,3.04
2023-06-30T22:14:23.799Z,2.97
2023-06-30T22:16:50.465Z,3.54
2023-06-30T22:19:17.094Z,3.58
2023-06-30T22:21:43.710Z,3.84
2023-06-30T22:24:10.442Z,3.79
2023-06-30T22:26:37.090Z,4.12
2023-06-30T22:29:04.291Z,3.91
2023-06-30T22:31:30.977Z,3.61
2023-06-30T22:33:57.746Z,4.09
2023-06-30T22:36:24.456Z,3.79
2023-06-30T22:38:51.150Z,3.59
2023-06-30T22:41:17.721Z,3.59
2023-06-30T22:43:44.431Z,3.53
2023-06-30T22:46:11.120Z,3.70
2023-06-30T22:48:37.762Z,3.30
2023-06-30T22:51:18.586Z,3.60
2023-06-30T22:53:45.670Z,2.96
2023-06-30T22:56:12.302Z,2.74
2023-06-30T22:58:38.937Z,3.15
2023-06-30T23:01:07.141Z,2.89
2023-06-30T23:03:34.183Z,2.83
2023-06-30T23:06:00.927Z,2.97
2023-06-30T23:08:27.625Z,3.14
2023-06-30T23:10:54.361Z,2.99
2023-06-30T23:13:21.028Z,3.12
2023-06-30T23:15:47.819Z,2.96
2023-06-30T23:18:15.154Z,3.09
2023-06-30T23:20:42.729Z,2.69
2023-06-30T23:23:09.393Z,3.11
2023-06-30T23:25:38.555Z,3.00
2023-06-30T23:28:05.240Z,3.12
2023-06-30T23:30:34.193Z,2.92
2023-06-30T23:33:03.953Z,3.06
2023-06-30T23:35:31.326Z,3.14
2023-06-30T23:37:57.931Z,3.28
2023-06-30T23:40:24.632Z,3.02
2023-06-30T23:42:51.306Z,2.90
2023-06-30T23:45:18.024Z,2.95
2023-06-30T23:47:44.754Z,3.22
2023-06-30T23:50:11.429Z,3.17
2023-06-30T23:52:38.074Z,3.43
2023-06-30T23:55:04.964Z,3.12
2023-06-30T23:57:31.663Z,3.02
2023-06-30T23:59:58.300Z,3.12
